Cataratas International Airport

SBFI · Paraná, 巴西

罗盘
风向 的 风向 030° Cataratas International Airport 15/33
风: 8 kt, 3 beaufort

1 kt

8 kt
改变
0 ft 1.000 2.000 3.000 4.000 5.000
Cloud Cloud Cloud Cloud Cloud Cloud
BKN 1.000
Cloud Cloud Cloud Cloud Cloud Cloud Cloud Cloud
OVC 1.500
METAR SBFI 161627Z 03008KT 5000 2000NW RA BR BKN010 OVC015 25/24 Q1011

METAR Cataratas International Airport - SBFI/IGU

Cataratas International Airport是,巴西中的中型机场。 该机场位于纬度-25,59584和经度-54,48731。 该机场有一条跑道: 15/33. 本场的ICAO机场代码为SBFI。 该机场的IATA代码为IGU。 机场在Curitiba FIR中。

该航空气象观测是针对Cataratas International Airport在2024年4月16日 13:27, 当地时间进行的。

机场观察

风向为030°,速度为8 kt。

可见度为5 km。 最小可见度为2 km,朝着:NW。

有碎云在1.000 ft的高度 和 乌云密布在1.500 ft的高度。 破损或更高的上限为1.000 ft。

当前天气为雨, 薄雾。 温度和风寒是25 °C。 露点为24 °C,相对湿度为94%。 海平面上的气压为1011 hPa (QNH)。

白天

今天,太阳从06:54升起,在18:21降落。 这适用于Cataratas International Airport,世界夏令时可能有所不同。 当地时间与世界标准时间之间的时差为-3 小时。 夏令时目前正在进行中。

公司介绍

我们没有关于这个机场的公司信息。

体会

到Vliegles.nl去找飞行课程,跳伞和其他飞行体验。 浏览页面,了解Cataratas International Airport附近所有可用的活动。 你也可以使用搜索功能来寻找你所在地附近的特定飞行课程、跳伞或其他飞行体验。

警示语

最小能见度为方向 NW。

跑道

Id 标题 侧风 逆风 侧风 %
15/33 129°-309° 8 kt 1 kt 99 %

逆风成分最大的方向会被突出显示,并用于横风计算。 这并不一定意味着这个方向在使用。

乌云

1.000 ft BKN 碎云
1.500 ft OVC 乌云密布

温度 & 天气

天气
薄雾
温度 25 °C
露点 24 °C
相对湿度 94%
Kp-index 4 (0-9)

白天

日出
06:54
中午
12:37
日落
18:21 (4:41)

小工具

你想在你的网站上有一个关于Cataratas International Airport的当前航空天气(METAR)的小部件吗?

显示HTML代码
报告变更